Saigon Express — VRBT7 — position and weather

sailwx.info

Track history (hours):
 
Tides and Currents Weather Stations Pressure Air Temp Water Temp Dewpoint Dewpoint Depression Visibility Wind Speed Wind Dir Waves Ship Positions

Saigon Express

Last reported at 2015-Jul-23 12:00 UTC. Time now 2015-Aug-02 02:16 UTC.
Position N 29°30' W 052°00'.
Warning: this ship's position is 9 days out of date.

Length 260 m; draft 12.6 m.

Type: Ship (hazmat cat A). MMSI: 477106800.

Wind from 260 at 6 knots

Waves 0.5 meters (2 feet), 6 second period

Barometer 1022.0 mb
Air temperature 27.0 ° C
Visibility: greater than 10.8 NM
Dewpoint 22.6 ° C

Date/timePositionNaut miles runAvg speedWind from/ knotsBaromVisibWave heightAir tempDewpointWater temp
2015-Jul-23 12:00N 29°30' W 052°00'19115.9 260 / 61022.010.8 0.527.022.6
2015-Jul-23 00:00N 30°42' W 048°36'   280 / 91020.010.8 0.530.024.3
2015-Jul-19 21:33N 35°36' W 026°32'6715.5
2015-Jul-19 17:14N 35°45' W 025°11'1715.0
2015-Jul-19 16:07N 35°47' W 024°50'1115.1
2015-Jul-19 15:24N 35°48' W 024°37'1715.2
2015-Jul-19 14:19N 35°50' W 024°17'1215.2
2015-Jul-19 13:32N 35°52' W 024°02'1515.1
2015-Jul-19 12:33N 35°54' W 023°44'1515.2
2015-Jul-19 11:33N 35°55' W 023°25'1615.7
2015-Jul-19 10:33N 35°58' W 023°06'1615.8
2015-Jul-19 09:34N 35°60' W 022°47'42615.5
2015-Jul-18 06:00N 36°06' W 014°00'19015.2 300 / 111014.0 5.4 1.023.021.5
2015-Jul-17 17:33N 36°01' W 010°06'3215.4
2015-Jul-17 15:29N 35°60' W 009°26'1515.8
2015-Jul-17 14:33N 35°59' W 009°08'1515.3
2015-Jul-17 13:33N 35°59' W 008°49'1514.9
2015-Jul-17 12:32N 35°59' W 008°31'3014.9
2015-Jul-17 10:33N 35°59' W 007°54'1814.9
2015-Jul-17 09:22N 35°58' W 007°32'4415.7
2015-Jul-17 06:33N 35°57' W 006°38'1615.3
2015-Jul-17 05:32N 35°58' W 006°18'8014.7
2015-Jul-17 00:06N 36°09' W 004°41'6915.1
2015-Jul-16 19:33N 36°19' W 003°16'1615.4
2015-Jul-16 18:30N 36°21' W 002°56'1515.6
2015-Jul-16 17:33N 36°22' W 002°38'1515.4
2015-Jul-16 16:33N 36°25' W 002°19'1515.1
2015-Jul-16 15:33N 36°31' W 002°02'1615.5
2015-Jul-16 14:33N 36°42' W 001°48'1615.4
2015-Jul-16 13:33N 36°52' W 001°34'1715.8
2015-Jul-16 12:30N 37°03' W 001°18'1615.6
2015-Jul-16 11:27N 37°14' W 001°03'1516.0
2015-Jul-16 10:31N 37°24' W 000°49'1515.8
2015-Jul-16 09:33N 37°34' W 000°34'1715.7
2015-Jul-16 08:29N 37°48' W 000°23'1515.7
2015-Jul-16 07:33N 37°60' W 000°12'1615.5
2015-Jul-16 06:33N 38°13' W 000°02'1515.1
2015-Jul-16 05:33N 38°25' E 000°09'1915.2
2015-Jul-16 04:18N 38°42' E 000°22'912.2
2015-Jul-16 03:33N 38°51' E 000°22'1515.3
2015-Jul-16 02:33N 39°02' E 000°09'1515.3
2015-Jul-16 01:33N 39°14' W 000°03'52 1.8
2015-Jul-14 20:33N 39°43' E 000°53'8 8.0
2015-Jul-14 19:33N 39°50' E 000°58'8 7.6
2015-Jul-14 18:33N 39°57' E 001°03'8 7.6
2015-Jul-14 17:33N 40°03' E 001°09'8 7.7
2015-Jul-14 16:34N 40°09' E 001°14'8 7.9
2015-Jul-14 15:32N 40°16' E 001°20'8 8.3
2015-Jul-14 14:33N 40°23' E 001°25'9 8.7
2015-Jul-14 13:34N 40°30' E 001°31'8 8.3
2015-Jul-14 12:33N 40°37' E 001°38'8 7.9
2015-Jul-14 11:33N 40°44' E 001°43'8 7.8
2015-Jul-14 10:34N 40°51' E 001°48'8 8.0
2015-Jul-14 09:34N 40°57' E 001°55'8 8.3
2015-Jul-14 08:33N 41°04' E 002°00'9 8.2
2015-Jul-14 07:26N 41°12' E 002°07'7 7.9
2015-Jul-14 06:33N 41°19' E 002°10'2 0.7
2015-Jul-14 03:22N 41°21' E 002°10'0 0.0
2015-Jul-14 00:22N 41°21' E 002°10'0 0.0
2015-Jul-13 22:28N 41°21' E 002°10'0 0.0
2015-Jul-13 20:07N 41°21' E 002°10'0 0.0
2015-Jul-13 19:28N 41°21' E 002°10'0 0.1
2015-Jul-13 18:33N 41°21' E 002°10'5 5.5
2015-Jul-13 17:33N 41°16' E 002°14'1 0.6
2015-Jul-13 16:33N 41°16' E 002°15'9 9.3
2015-Jul-13 15:33N 41°18' E 002°27'1414.4
2015-Jul-13 14:33N 41°21' E 002°45'1816.5
2015-Jul-13 13:29N 41°25' E 003°08'  
Track history (hours):
 
Tides and Currents Weather Stations Pressure Air Temp Water Temp Dewpoint Dewpoint Depression Visibility Wind Speed Wind Dir Waves Ship Positions

Saigon Express

Last reported at 2015-Jul-23 12:00 UTC. Time now 2015-Aug-02 02:16 UTC.
Position N 29°30' W 052°00'.
Warning: this ship's position is 9 days out of date.

Length 260 m; draft 12.6 m.

Type: Ship (hazmat cat A). MMSI: 477106800.

Wind from 260 at 6 knots

Waves 0.5 meters (2 feet), 6 second period

Barometer 1022.0 mb
Air temperature 27.0 ° C
Visibility: greater than 10.8 NM
Dewpoint 22.6 ° C

Date/timePositionNaut miles runAvg speedWind from/ knotsBaromVisibWave heightAir tempDewpointWater temp
2015-Jul-23 12:00N 29°30' W 052°00'19115.9 260 / 61022.010.8 0.527.022.6
2015-Jul-23 00:00N 30°42' W 048°36'   280 / 91020.010.8 0.530.024.3
2015-Jul-19 21:33N 35°36' W 026°32'6715.5
2015-Jul-19 17:14N 35°45' W 025°11'1715.0
2015-Jul-19 16:07N 35°47' W 024°50'1115.1
2015-Jul-19 15:24N 35°48' W 024°37'1715.2
2015-Jul-19 14:19N 35°50' W 024°17'1215.2
2015-Jul-19 13:32N 35°52' W 024°02'1515.1
2015-Jul-19 12:33N 35°54' W 023°44'1515.2
2015-Jul-19 11:33N 35°55' W 023°25'1615.7
2015-Jul-19 10:33N 35°58' W 023°06'1615.8
2015-Jul-19 09:34N 35°60' W 022°47'42615.5
2015-Jul-18 06:00N 36°06' W 014°00'19015.2 300 / 111014.0 5.4 1.023.021.5
2015-Jul-17 17:33N 36°01' W 010°06'3215.4
2015-Jul-17 15:29N 35°60' W 009°26'1515.8
2015-Jul-17 14:33N 35°59' W 009°08'1515.3
2015-Jul-17 13:33N 35°59' W 008°49'1514.9
2015-Jul-17 12:32N 35°59' W 008°31'3014.9
2015-Jul-17 10:33N 35°59' W 007°54'1814.9
2015-Jul-17 09:22N 35°58' W 007°32'4415.7
2015-Jul-17 06:33N 35°57' W 006°38'1615.3
2015-Jul-17 05:32N 35°58' W 006°18'8014.7
2015-Jul-17 00:06N 36°09' W 004°41'6915.1
2015-Jul-16 19:33N 36°19' W 003°16'1615.4
2015-Jul-16 18:30N 36°21' W 002°56'1515.6
2015-Jul-16 17:33N 36°22' W 002°38'1515.4
2015-Jul-16 16:33N 36°25' W 002°19'1515.1
2015-Jul-16 15:33N 36°31' W 002°02'1615.5
2015-Jul-16 14:33N 36°42' W 001°48'1615.4
2015-Jul-16 13:33N 36°52' W 001°34'1715.8
2015-Jul-16 12:30N 37°03' W 001°18'1615.6
2015-Jul-16 11:27N 37°14' W 001°03'1516.0
2015-Jul-16 10:31N 37°24' W 000°49'1515.8
2015-Jul-16 09:33N 37°34' W 000°34'1715.7
2015-Jul-16 08:29N 37°48' W 000°23'1515.7
2015-Jul-16 07:33N 37°60' W 000°12'1615.5
2015-Jul-16 06:33N 38°13' W 000°02'1515.1
2015-Jul-16 05:33N 38°25' E 000°09'1915.2
2015-Jul-16 04:18N 38°42' E 000°22'912.2
2015-Jul-16 03:33N 38°51' E 000°22'1515.3
2015-Jul-16 02:33N 39°02' E 000°09'1515.3
2015-Jul-16 01:33N 39°14' W 000°03'52 1.8
2015-Jul-14 20:33N 39°43' E 000°53'8 8.0
2015-Jul-14 19:33N 39°50' E 000°58'8 7.6
2015-Jul-14 18:33N 39°57' E 001°03'8 7.6
2015-Jul-14 17:33N 40°03' E 001°09'8 7.7
2015-Jul-14 16:34N 40°09' E 001°14'8 7.9
2015-Jul-14 15:32N 40°16' E 001°20'8 8.3
2015-Jul-14 14:33N 40°23' E 001°25'9 8.7
2015-Jul-14 13:34N 40°30' E 001°31'8 8.3
2015-Jul-14 12:33N 40°37' E 001°38'8 7.9
2015-Jul-14 11:33N 40°44' E 001°43'8 7.8
2015-Jul-14 10:34N 40°51' E 001°48'8 8.0
2015-Jul-14 09:34N 40°57' E 001°55'8 8.3
2015-Jul-14 08:33N 41°04' E 002°00'9 8.2
2015-Jul-14 07:26N 41°12' E 002°07'7 7.9
2015-Jul-14 06:33N 41°19' E 002°10'2 0.7
2015-Jul-14 03:22N 41°21' E 002°10'0 0.0
2015-Jul-14 00:22N 41°21' E 002°10'0 0.0
2015-Jul-13 22:28N 41°21' E 002°10'0 0.0
2015-Jul-13 20:07N 41°21' E 002°10'0 0.0
2015-Jul-13 19:28N 41°21' E 002°10'0 0.1
2015-Jul-13 18:33N 41°21' E 002°10'5 5.5
2015-Jul-13 17:33N 41°16' E 002°14'1 0.6
2015-Jul-13 16:33N 41°16' E 002°15'9 9.3
2015-Jul-13 15:33N 41°18' E 002°27'1414.4
2015-Jul-13 14:33N 41°21' E 002°45'1816.5
2015-Jul-13 13:29N 41°25' E 003°08'  

Dump ship's entire track history